sensor_id;sensor_type;location;lat;lon;timestamp;temperature;humidity
26691;DHT22;14307;51.718;8.938;2024-03-17T00:01:38;4.70;99.90
26691;DHT22;14307;51.718;8.938;2024-03-17T00:04:04;4.50;99.90
26691;DHT22;14307;51.718;8.938;2024-03-17T00:06:31;4.50;99.90
26691;DHT22;14307;51.718;8.938;2024-03-17T00:08:57;4.50;99.90
26691;DHT22;14307;51.718;8.938;2024-03-17T00:11:23;4.30;99.90
26691;DHT22;14307;51.718;8.938;2024-03-17T00:13:49;4.20;99.90
26691;DHT22;14307;51.718;8.938;2024-03-17T00:16:16;4.20;99.90
26691;DHT22;14307;51.718;8.938;2024-03-17T00:18:46;4.10;99.90
26691;DHT22;14307;51.718;8.938;2024-03-17T00:21:12;3.90;99.90
26691;DHT22;14307;51.718;8.938;2024-03-17T00:23:39;3.90;99.90
26691;DHT22;14307;51.718;8.938;2024-03-17T00:26:05;3.60;99.90
26691;DHT22;14307;51.718;8.938;2024-03-17T00:28:31;3.50;99.90
26691;DHT22;14307;51.718;8.938;2024-03-17T00:30:57;3.40;99.90
26691;DHT22;14307;51.718;8.938;2024-03-17T00:33:23;3.40;99.90
26691;DHT22;14307;51.718;8.938;2024-03-17T00:35:50;3.50;99.90
26691;DHT22;14307;51.718;8.938;2024-03-17T00:38:17;3.40;99.90
26691;DHT22;14307;51.718;8.938;2024-03-17T00:40:43;3.30;99.90
26691;DHT22;14307;51.718;8.938;2024-03-17T00:43:11;3.20;99.90
26691;DHT22;14307;51.718;8.938;2024-03-17T00:45:40;3.10;99.90
26691;DHT22;14307;51.718;8.938;2024-03-17T00:48:06;3.10;99.90
26691;DHT22;14307;51.718;8.938;2024-03-17T00:50:32;3.00;99.90
26691;DHT22;14307;51.718;8.938;2024-03-17T00:52:59;3.10;99.90
26691;DHT22;14307;51.718;8.938;2024-03-17T00:55:26;3.10;99.90
26691;DHT22;14307;51.718;8.938;2024-03-17T00:57:52;3.10;99.90
26691;DHT22;14307;51.718;8.938;2024-03-17T01:00:20;3.00;99.90
26691;DHT22;14307;51.718;8.938;2024-03-17T01:02:46;2.80;99.90
26691;DHT22;14307;51.718;8.938;2024-03-17T01:05:12;2.70;99.90
26691;DHT22;14307;51.718;8.938;2024-03-17T01:07:38;2.70;99.90
26691;DHT22;14307;51.718;8.938;2024-03-17T01:10:05;2.70;99.90
26691;DHT22;14307;51.718;8.938;2024-03-17T01:12:34;2.90;99.90
26691;DHT22;14307;51.718;8.938;2024-03-17T01:15:04;2.90;99.90
26691;DHT22;14307;51.718;8.938;2024-03-17T01:17:30;2.70;99.90
26691;DHT22;14307;51.718;8.938;2024-03-17T01:19:56;2.80;99.90
26691;DHT22;14307;51.718;8.938;2024-03-17T01:22:23;2.60;99.90
26691;DHT22;14307;51.718;8.938;2024-03-17T01:24:49;2.50;99.90
26691;DHT22;14307;51.718;8.938;2024-03-17T01:27:15;2.40;99.90
26691;DHT22;14307;51.718;8.938;2024-03-17T01:29:45;2.40;99.90
26691;DHT22;14307;51.718;8.938;2024-03-17T01:32:11;2.40;99.90
26691;DHT22;14307;51.718;8.938;2024-03-17T01:34:38;2.40;99.90
26691;DHT22;14307;51.718;8.938;2024-03-17T01:37:04;2.40;99.90
26691;DHT22;14307;51.718;8.938;2024-03-17T01:39:30;2.40;99.90
26691;DHT22;14307;51.718;8.938;2024-03-17T01:41:58;2.30;99.90
26691;DHT22;14307;51.718;8.938;2024-03-17T01:44:28;2.30;99.90
26691;DHT22;14307;51.718;8.938;2024-03-17T01:46:56;2.30;99.90
26691;DHT22;14307;51.718;8.938;2024-03-17T01:49:23;2.10;99.90
26691;DHT22;14307;51.718;8.938;2024-03-17T01:51:53;2.00;99.90
26691;DHT22;14307;51.718;8.938;2024-03-17T01:54:19;2.10;99.90
26691;DHT22;14307;51.718;8.938;2024-03-17T01:56:46;2.10;99.90
26691;DHT22;14307;51.718;8.938;2024-03-17T01:59:13;1.90;99.90
26691;DHT22;14307;51.718;8.938;2024-03-17T02:01:40;2.00;99.90
26691;DHT22;14307;51.718;8.938;2024-03-17T02:04:08;2.10;99.90
26691;DHT22;14307;51.718;8.938;2024-03-17T02:06:34;1.90;99.90
26691;DHT22;14307;51.718;8.938;2024-03-17T02:09:00;1.80;99.90
26691;DHT22;14307;51.718;8.938;2024-03-17T02:11:32;1.90;99.90
26691;DHT22;14307;51.718;8.938;2024-03-17T02:14:00;1.80;99.90
26691;DHT22;14307;51.718;8.938;2024-03-17T02:16:27;1.80;99.90
26691;DHT22;14307;51.718;8.938;2024-03-17T02:18:55;1.80;99.90
26691;DHT22;14307;51.718;8.938;2024-03-17T02:21:22;1.70;99.90
26691;DHT22;14307;51.718;8.938;2024-03-17T02:23:54;1.70;99.90
26691;DHT22;14307;51.718;8.938;2024-03-17T02:26:21;1.80;99.90
26691;DHT22;14307;51.718;8.938;2024-03-17T02:28:48;1.80;99.90
26691;DHT22;14307;51.718;8.938;2024-03-17T02:31:16;1.70;99.90
26691;DHT22;14307;51.718;8.938;2024-03-17T02:33:44;1.70;99.90
26691;DHT22;14307;51.718;8.938;2024-03-17T02:36:11;1.70;99.90
26691;DHT22;14307;51.718;8.938;2024-03-17T02:38:39;1.70;99.90
26691;DHT22;14307;51.718;8.938;2024-03-17T02:41:24;1.60;99.90
26691;DHT22;14307;51.718;8.938;2024-03-17T02:43:50;1.60;99.90
26691;DHT22;14307;51.718;8.938;2024-03-17T02:46:17;1.60;99.90
26691;DHT22;14307;51.718;8.938;2024-03-17T02:48:48;1.70;99.90
26691;DHT22;14307;51.718;8.938;2024-03-17T02:51:17;1.50;99.90
26691;DHT22;14307;51.718;8.938;2024-03-17T02:53:45;1.40;99.90
26691;DHT22;14307;51.718;8.938;2024-03-17T02:56:11;1.40;99.90
26691;DHT22;14307;51.718;8.938;2024-03-17T02:58:39;1.20;99.90
26691;DHT22;14307;51.718;8.938;2024-03-17T03:01:06;1.30;99.90
26691;DHT22;14307;51.718;8.938;2024-03-17T03:03:33;1.20;99.90
26691;DHT22;14307;51.718;8.938;2024-03-17T03:05:59;1.30;99.90
26691;DHT22;14307;51.718;8.938;2024-03-17T03:08:30;1.10;99.90
26691;DHT22;14307;51.718;8.938;2024-03-17T03:10:56;1.20;99.90
26691;DHT22;14307;51.718;8.938;2024-03-17T03:13:22;1.30;99.90
26691;DHT22;14307;51.718;8.938;2024-03-17T03:15:49;1.40;99.90
26691;DHT22;14307;51.718;8.938;2024-03-17T03:18:15;1.30;99.90
26691;DHT22;14307;51.718;8.938;2024-03-17T03:20:41;1.20;99.90
26691;DHT22;14307;51.718;8.938;2024-03-17T03:23:07;1.20;99.90
26691;DHT22;14307;51.718;8.938;2024-03-17T03:25:33;1.00;99.90
26691;DHT22;14307;51.718;8.938;2024-03-17T03:28:00;0.90;99.90
26691;DHT22;14307;51.718;8.938;2024-03-17T03:30:27;1.00;99.90
26691;DHT22;14307;51.718;8.938;2024-03-17T03:32:55;0.90;99.90
26691;DHT22;14307;51.718;8.938;2024-03-17T03:35:21;0.90;99.90
26691;DHT22;14307;51.718;8.938;2024-03-17T03:37:47;0.80;99.90
26691;DHT22;14307;51.718;8.938;2024-03-17T03:40:13;0.70;99.90
26691;DHT22;14307;51.718;8.938;2024-03-17T03:42:43;0.70;99.90
26691;DHT22;14307;51.718;8.938;2024-03-17T03:45:09;0.80;99.90
26691;DHT22;14307;51.718;8.938;2024-03-17T03:47:39;0.80;99.90
26691;DHT22;14307;51.718;8.938;2024-03-17T03:50:21;0.70;99.90
26691;DHT22;14307;51.718;8.938;2024-03-17T03:52:47;0.60;99.90
26691;DHT22;14307;51.718;8.938;2024-03-17T03:55:15;0.70;99.90
26691;DHT22;14307;51.718;8.938;2024-03-17T03:57:43;0.90;99.90
26691;DHT22;14307;51.718;8.938;2024-03-17T04:00:12;1.00;99.90
26691;DHT22;14307;51.718;8.938;2024-03-17T04:02:39;1.10;99.90
26691;DHT22;14307;51.718;8.938;2024-03-17T04:05:06;1.10;99.90
26691;DHT22;14307;51.718;8.938;2024-03-17T04:07:32;0.90;99.90
26691;DHT22;14307;51.718;8.938;2024-03-17T04:09:58;0.90;99.90
26691;DHT22;14307;51.718;8.938;2024-03-17T04:12:25;0.80;99.90
26691;DHT22;14307;51.718;8.938;2024-03-17T04:14:51;0.70;99.90
26691;DHT22;14307;51.718;8.938;2024-03-17T04:17:22;0.80;99.90
26691;DHT22;14307;51.718;8.938;2024-03-17T04:19:52;0.90;99.90
26691;DHT22;14307;51.718;8.938;2024-03-17T04:22:20;0.90;99.90
26691;DHT22;14307;51.718;8.938;2024-03-17T04:24:47;0.80;99.90
26691;DHT22;14307;51.718;8.938;2024-03-17T04:27:14;0.80;99.90
26691;DHT22;14307;51.718;8.938;2024-03-17T04:29:40;0.90;99.90
26691;DHT22;14307;51.718;8.938;2024-03-17T04:32:06;1.10;99.90
26691;DHT22;14307;51.718;8.938;2024-03-17T04:34:32;1.10;99.90
26691;DHT22;14307;51.718;8.938;2024-03-17T04:36:59;0.90;99.90
26691;DHT22;14307;51.718;8.938;2024-03-17T04:39:25;0.90;99.90
26691;DHT22;14307;51.718;8.938;2024-03-17T04:41:51;0.80;99.90
26691;DHT22;14307;51.718;8.938;2024-03-17T04:44:18;0.80;99.90
26691;DHT22;14307;51.718;8.938;2024-03-17T04:46:44;0.80;99.90
26691;DHT22;14307;51.718;8.938;2024-03-17T04:49:10;0.80;99.90
26691;DHT22;14307;51.718;8.938;2024-03-17T04:51:36;0.80;99.90
26691;DHT22;14307;51.718;8.938;2024-03-17T04:54:02;0.80;99.90
26691;DHT22;14307;51.718;8.938;2024-03-17T04:56:33;0.80;99.90
26691;DHT22;14307;51.718;8.938;2024-03-17T04:58:59;0.90;99.90
26691;DHT22;14307;51.718;8.938;2024-03-17T05:01:25;0.80;99.90
26691;DHT22;14307;51.718;8.938;2024-03-17T05:03:51;0.90;99.90
26691;DHT22;14307;51.718;8.938;2024-03-17T05:06:18;0.80;99.90
26691;DHT22;14307;51.718;8.938;2024-03-17T05:08:44;1.00;99.90
26691;DHT22;14307;51.718;8.938;2024-03-17T05:11:11;0.90;99.90
26691;DHT22;14307;51.718;8.938;2024-03-17T05:13:38;0.90;99.90
26691;DHT22;14307;51.718;8.938;2024-03-17T05:16:06;0.80;99.90
26691;DHT22;14307;51.718;8.938;2024-03-17T05:18:33;0.70;99.90
26691;DHT22;14307;51.718;8.938;2024-03-17T05:21:04;0.90;99.90
26691;DHT22;14307;51.718;8.938;2024-03-17T05:23:32;0.80;99.90
26691;DHT22;14307;51.718;8.938;2024-03-17T05:25:59;0.80;99.90
26691;DHT22;14307;51.718;8.938;2024-03-17T05:28:26;0.90;99.90
26691;DHT22;14307;51.718;8.938;2024-03-17T05:30:53;0.90;99.90
26691;DHT22;14307;51.718;8.938;2024-03-17T05:33:20;0.90;99.90
26691;DHT22;14307;51.718;8.938;2024-03-17T05:35:58;0.90;99.90
26691;DHT22;14307;51.718;8.938;2024-03-17T05:38:28;0.80;99.90
26691;DHT22;14307;51.718;8.938;2024-03-17T05:43:31;0.70;99.90
26691;DHT22;14307;51.718;8.938;2024-03-17T05:46:00;0.70;99.90
26691;DHT22;14307;51.718;8.938;2024-03-17T05:48:27;0.60;99.90
26691;DHT22;14307;51.718;8.938;2024-03-17T05:50:53;0.60;99.90
26691;DHT22;14307;51.718;8.938;2024-03-17T05:53:20;0.50;99.90
26691;DHT22;14307;51.718;8.938;2024-03-17T05:55:47;0.60;99.90
26691;DHT22;14307;51.718;8.938;2024-03-17T05:58:13;0.50;99.90
26691;DHT22;14307;51.718;8.938;2024-03-17T06:00:39;0.50;99.90
26691;DHT22;14307;51.718;8.938;2024-03-17T06:03:06;0.60;99.90
26691;DHT22;14307;51.718;8.938;2024-03-17T06:05:37;0.50;99.90
26691;DHT22;14307;51.718;8.938;2024-03-17T06:08:05;0.50;99.90
26691;DHT22;14307;51.718;8.938;2024-03-17T06:10:32;0.60;99.90
26691;DHT22;14307;51.718;8.938;2024-03-17T06:12:59;0.60;99.90
26691;DHT22;14307;51.718;8.938;2024-03-17T06:15:26;0.70;99.90
26691;DHT22;14307;51.718;8.938;2024-03-17T06:17:53;0.80;99.90
26691;DHT22;14307;51.718;8.938;2024-03-17T06:20:24;1.00;99.90
26691;DHT22;14307;51.718;8.938;2024-03-17T06:22:56;1.00;99.90
26691;DHT22;14307;51.718;8.938;2024-03-17T06:25:22;0.90;99.90
26691;DHT22;14307;51.718;8.938;2024-03-17T06:27:52;1.00;99.90
26691;DHT22;14307;51.718;8.938;2024-03-17T06:30:18;1.00;99.90
26691;DHT22;14307;51.718;8.938;2024-03-17T06:32:45;1.10;99.90
26691;DHT22;14307;51.718;8.938;2024-03-17T06:35:13;1.20;99.90
26691;DHT22;14307;51.718;8.938;2024-03-17T06:37:42;1.20;99.90
26691;DHT22;14307;51.718;8.938;2024-03-17T06:40:12;1.30;99.90
26691;DHT22;14307;51.718;8.938;2024-03-17T06:42:39;1.30;99.90
26691;DHT22;14307;51.718;8.938;2024-03-17T06:45:06;1.40;99.90
26691;DHT22;14307;51.718;8.938;2024-03-17T06:47:35;1.50;99.90
26691;DHT22;14307;51.718;8.938;2024-03-17T06:50:03;1.60;99.90
26691;DHT22;14307;51.718;8.938;2024-03-17T06:52:29;1.70;99.90
26691;DHT22;14307;51.718;8.938;2024-03-17T06:54:55;1.80;99.90
26691;DHT22;14307;51.718;8.938;2024-03-17T06:57:22;1.90;99.90
26691;DHT22;14307;51.718;8.938;2024-03-17T06:59:48;2.00;99.90
26691;DHT22;14307;51.718;8.938;2024-03-17T07:02:14;2.10;99.90
26691;DHT22;14307;51.718;8.938;2024-03-17T07:04:44;2.40;99.90
26691;DHT22;14307;51.718;8.938;2024-03-17T07:07:10;2.60;99.90
26691;DHT22;14307;51.718;8.938;2024-03-17T07:09:38;2.70;99.90
26691;DHT22;14307;51.718;8.938;2024-03-17T07:12:09;2.90;99.90
26691;DHT22;14307;51.718;8.938;2024-03-17T07:14:36;2.80;99.90
26691;DHT22;14307;51.718;8.938;2024-03-17T07:17:03;2.90;99.90
26691;DHT22;14307;51.718;8.938;2024-03-17T07:19:29;3.00;99.90
26691;DHT22;14307;51.718;8.938;2024-03-17T07:22:00;3.20;99.90
26691;DHT22;14307;51.718;8.938;2024-03-17T07:24:27;3.20;99.90
26691;DHT22;14307;51.718;8.938;2024-03-17T07:26:53;3.30;99.90
26691;DHT22;14307;51.718;8.938;2024-03-17T07:29:19;3.50;99.90
26691;DHT22;14307;51.718;8.938;2024-03-17T07:31:45;3.70;99.90
26691;DHT22;14307;51.718;8.938;2024-03-17T07:34:11;3.80;99.90
26691;DHT22;14307;51.718;8.938;2024-03-17T07:36:38;3.90;99.90
26691;DHT22;14307;51.718;8.938;2024-03-17T07:39:05;4.10;99.90
26691;DHT22;14307;51.718;8.938;2024-03-17T07:41:33;4.30;99.90
26691;DHT22;14307;51.718;8.938;2024-03-17T07:43:59;4.40;99.90
26691;DHT22;14307;51.718;8.938;2024-03-17T07:46:25;4.50;99.90
26691;DHT22;14307;51.718;8.938;2024-03-17T07:48:51;4.70;99.90
26691;DHT22;14307;51.718;8.938;2024-03-17T07:51:17;4.80;99.90
26691;DHT22;14307;51.718;8.938;2024-03-17T07:53:45;5.10;99.90
26691;DHT22;14307;51.718;8.938;2024-03-17T07:56:14;5.40;99.90
26691;DHT22;14307;51.718;8.938;2024-03-17T07:58:43;5.90;99.90
26691;DHT22;14307;51.718;8.938;2024-03-17T08:01:11;6.60;99.90
26691;DHT22;14307;51.718;8.938;2024-03-17T08:03:43;7.10;99.90
26691;DHT22;14307;51.718;8.938;2024-03-17T08:06:10;7.70;99.90
26691;DHT22;14307;51.718;8.938;2024-03-17T08:08:39;8.10;99.90
26691;DHT22;14307;51.718;8.938;2024-03-17T08:11:05;8.40;99.90
26691;DHT22;14307;51.718;8.938;2024-03-17T08:13:32;8.60;99.90
26691;DHT22;14307;51.718;8.938;2024-03-17T08:16:05;8.60;99.90
26691;DHT22;14307;51.718;8.938;2024-03-17T08:18:32;8.60;99.90
26691;DHT22;14307;51.718;8.938;2024-03-17T08:21:00;8.70;99.90
26691;DHT22;14307;51.718;8.938;2024-03-17T08:23:30;9.00;99.90
26691;DHT22;14307;51.718;8.938;2024-03-17T08:25:58;9.30;99.90
26691;DHT22;14307;51.718;8.938;2024-03-17T08:28:25;9.40;99.90
26691;DHT22;14307;51.718;8.938;2024-03-17T08:30:55;9.40;99.90
26691;DHT22;14307;51.718;8.938;2024-03-17T08:33:22;9.50;99.90
26691;DHT22;14307;51.718;8.938;2024-03-17T08:35:59;9.70;99.90
26691;DHT22;14307;51.718;8.938;2024-03-17T08:38:27;9.70;99.90
26691;DHT22;14307;51.718;8.938;2024-03-17T08:40:55;9.90;99.90
26691;DHT22;14307;51.718;8.938;2024-03-17T08:43:22;10.00;99.90
26691;DHT22;14307;51.718;8.938;2024-03-17T08:45:59;10.10;99.90
26691;DHT22;14307;51.718;8.938;2024-03-17T08:48:27;10.20;99.90
26691;DHT22;14307;51.718;8.938;2024-03-17T08:50:55;10.20;99.90
26691;DHT22;14307;51.718;8.938;2024-03-17T08:53:22;10.20;99.90
26691;DHT22;14307;51.718;8.938;2024-03-17T08:55:48;10.40;99.90
26691;DHT22;14307;51.718;8.938;2024-03-17T08:58:15;10.50;99.90
26691;DHT22;14307;51.718;8.938;2024-03-17T09:00:41;10.60;99.90
26691;DHT22;14307;51.718;8.938;2024-03-17T09:03:08;10.60;99.90
26691;DHT22;14307;51.718;8.938;2024-03-17T09:05:43;10.40;99.90
26691;DHT22;14307;51.718;8.938;2024-03-17T09:08:20;10.20;99.90
26691;DHT22;14307;51.718;8.938;2024-03-17T09:10:52;10.00;99.90
26691;DHT22;14307;51.718;8.938;2024-03-17T09:13:21;9.80;99.90
26691;DHT22;14307;51.718;8.938;2024-03-17T09:15:53;9.80;99.90
26691;DHT22;14307;51.718;8.938;2024-03-17T09:18:20;9.90;99.90
26691;DHT22;14307;51.718;8.938;2024-03-17T09:20:46;10.20;99.90
26691;DHT22;14307;51.718;8.938;2024-03-17T09:23:20;10.50;99.90
26691;DHT22;14307;51.718;8.938;2024-03-17T09:25:59;10.80;99.90
26691;DHT22;14307;51.718;8.938;2024-03-17T09:28:25;11.00;99.90
26691;DHT22;14307;51.718;8.938;2024-03-17T09:30:51;10.90;99.90
26691;DHT22;14307;51.718;8.938;2024-03-17T09:33:19;10.80;99.90
26691;DHT22;14307;51.718;8.938;2024-03-17T09:35:59;10.80;99.90
26691;DHT22;14307;51.718;8.938;2024-03-17T09:38:30;11.30;99.90
26691;DHT22;14307;51.718;8.938;2024-03-17T09:40:56;11.30;99.90
26691;DHT22;14307;51.718;8.938;2024-03-17T09:43:33;10.70;99.90
26691;DHT22;14307;51.718;8.938;2024-03-17T09:46:02;10.50;99.90
26691;DHT22;14307;51.718;8.938;2024-03-17T09:48:29;10.20;99.90
26691;DHT22;14307;51.718;8.938;2024-03-17T09:53:27;10.20;99.90
26691;DHT22;14307;51.718;8.938;2024-03-17T09:55:59;10.20;99.90
26691;DHT22;14307;51.718;8.938;2024-03-17T09:58:27;10.20;99.90
26691;DHT22;14307;51.718;8.938;2024-03-17T10:00:53;10.30;99.90
26691;DHT22;14307;51.718;8.938;2024-03-17T10:06:08;10.30;99.90
26691;DHT22;14307;51.718;8.938;2024-03-17T10:08:44;10.50;99.90
26691;DHT22;14307;51.718;8.938;2024-03-17T10:11:12;10.50;99.90
26691;DHT22;14307;51.718;8.938;2024-03-17T10:13:38;10.70;99.90
26691;DHT22;14307;51.718;8.938;2024-03-17T10:16:04;10.60;99.90
26691;DHT22;14307;51.718;8.938;2024-03-17T10:18:31;10.70;99.90
26691;DHT22;14307;51.718;8.938;2024-03-17T10:20:57;10.90;99.90
26691;DHT22;14307;51.718;8.938;2024-03-17T10:23:24;11.20;99.90
26691;DHT22;14307;51.718;8.938;2024-03-17T10:25:51;11.40;99.90
26691;DHT22;14307;51.718;8.938;2024-03-17T10:28:17;11.10;99.90
26691;DHT22;14307;51.718;8.938;2024-03-17T10:30:59;11.10;99.90
26691;DHT22;14307;51.718;8.938;2024-03-17T10:33:27;11.10;99.90
26691;DHT22;14307;51.718;8.938;2024-03-17T10:36:00;10.90;99.90
26691;DHT22;14307;51.718;8.938;2024-03-17T10:38:28;10.70;99.90
26691;DHT22;14307;51.718;8.938;2024-03-17T10:40:55;10.80;99.90
26691;DHT22;14307;51.718;8.938;2024-03-17T10:43:21;10.90;99.90
26691;DHT22;14307;51.718;8.938;2024-03-17T10:45:54;11.10;99.90
26691;DHT22;14307;51.718;8.938;2024-03-17T10:48:26;11.20;99.90
26691;DHT22;14307;51.718;8.938;2024-03-17T10:50:58;11.30;99.90
26691;DHT22;14307;51.718;8.938;2024-03-17T10:53:27;11.50;99.90
26691;DHT22;14307;51.718;8.938;2024-03-17T10:56:03;11.50;99.90
26691;DHT22;14307;51.718;8.938;2024-03-17T11:01:01;10.70;99.90
26691;DHT22;14307;51.718;8.938;2024-03-17T11:03:33;10.90;99.90
26691;DHT22;14307;51.718;8.938;2024-03-17T11:06:01;11.10;99.90
26691;DHT22;14307;51.718;8.938;2024-03-17T11:08:34;11.30;99.90
26691;DHT22;14307;51.718;8.938;2024-03-17T11:11:01;11.30;99.90
26691;DHT22;14307;51.718;8.938;2024-03-17T11:13:31;11.50;99.90
26691;DHT22;14307;51.718;8.938;2024-03-17T11:15:58;11.40;99.90
26691;DHT22;14307;51.718;8.938;2024-03-17T11:23:30;12.20;99.90
26691;DHT22;14307;51.718;8.938;2024-03-17T11:25:57;12.10;99.90
26691;DHT22;14307;51.718;8.938;2024-03-17T11:31:32;12.30;99.90
26691;DHT22;14307;51.718;8.938;2024-03-17T11:34:02;12.10;99.90
26691;DHT22;14307;51.718;8.938;2024-03-17T11:36:36;12.20;99.90
26691;DHT22;14307;51.718;8.938;2024-03-17T11:39:04;12.20;99.90
26691;DHT22;14307;51.718;8.938;2024-03-17T11:41:44;12.40;99.90
26691;DHT22;14307;51.718;8.938;2024-03-17T11:46:42;12.60;99.90
26691;DHT22;14307;51.718;8.938;2024-03-17T11:49:21;12.60;99.90
26691;DHT22;14307;51.718;8.938;2024-03-17T11:51:49;12.30;99.90
26691;DHT22;14307;51.718;8.938;2024-03-17T11:54:17;12.30;99.90
26691;DHT22;14307;51.718;8.938;2024-03-17T11:56:46;12.40;99.90
26691;DHT22;14307;51.718;8.938;2024-03-17T11:59:12;12.30;99.90
26691;DHT22;14307;51.718;8.938;2024-03-17T12:01:39;12.30;99.90
26691;DHT22;14307;51.718;8.938;2024-03-17T12:04:07;12.50;99.90
26691;DHT22;14307;51.718;8.938;2024-03-17T12:06:34;12.20;99.90
26691;DHT22;14307;51.718;8.938;2024-03-17T12:09:30;12.10;99.90
26691;DHT22;14307;51.718;8.938;2024-03-17T12:12:04;12.20;99.90
26691;DHT22;14307;51.718;8.938;2024-03-17T12:14:31;12.30;99.90
26691;DHT22;14307;51.718;8.938;2024-03-17T12:17:08;12.40;99.90
26691;DHT22;14307;51.718;8.938;2024-03-17T12:19:35;12.60;99.90
26691;DHT22;14307;51.718;8.938;2024-03-17T12:22:02;12.60;99.90
26691;DHT22;14307;51.718;8.938;2024-03-17T12:24:31;12.50;99.90
26691;DHT22;14307;51.718;8.938;2024-03-17T12:26:58;12.20;99.90
26691;DHT22;14307;51.718;8.938;2024-03-17T12:29:34;12.20;99.90
26691;DHT22;14307;51.718;8.938;2024-03-17T12:32:04;12.20;99.90
26691;DHT22;14307;51.718;8.938;2024-03-17T12:34:34;12.10;99.90
26691;DHT22;14307;51.718;8.938;2024-03-17T12:37:01;11.90;99.90
26691;DHT22;14307;51.718;8.938;2024-03-17T12:39:28;11.90;99.90
26691;DHT22;14307;51.718;8.938;2024-03-17T12:44:38;12.40;99.90
26691;DHT22;14307;51.718;8.938;2024-03-17T12:47:11;12.60;99.90
26691;DHT22;14307;51.718;8.938;2024-03-17T12:49:48;12.70;99.90
26691;DHT22;14307;51.718;8.938;2024-03-17T12:52:33;12.50;99.90
26691;DHT22;14307;51.718;8.938;2024-03-17T12:55:00;12.70;99.90
26691;DHT22;14307;51.718;8.938;2024-03-17T13:01:08;12.30;99.90
26691;DHT22;14307;51.718;8.938;2024-03-17T13:03:36;12.20;99.90
26691;DHT22;14307;51.718;8.938;2024-03-17T13:06:04;12.10;99.90
26691;DHT22;14307;51.718;8.938;2024-03-17T13:08:34;12.10;99.90
26691;DHT22;14307;51.718;8.938;2024-03-17T13:11:01;12.10;99.90
26691;DHT22;14307;51.718;8.938;2024-03-17T13:13:31;12.10;99.90
26691;DHT22;14307;51.718;8.938;2024-03-17T13:15:58;12.00;99.90
26691;DHT22;14307;51.718;8.938;2024-03-17T13:18:24;12.20;99.90
26691;DHT22;14307;51.718;8.938;2024-03-17T13:20:50;12.20;99.90
26691;DHT22;14307;51.718;8.938;2024-03-17T13:23:19;12.20;99.90
26691;DHT22;14307;51.718;8.938;2024-03-17T13:25:47;12.20;99.90
26691;DHT22;14307;51.718;8.938;2024-03-17T13:28:14;12.00;99.90
26691;DHT22;14307;51.718;8.938;2024-03-17T13:30:41;12.00;99.90
26691;DHT22;14307;51.718;8.938;2024-03-17T13:33:08;12.00;99.90
26691;DHT22;14307;51.718;8.938;2024-03-17T13:35:35;12.10;99.90
26691;DHT22;14307;51.718;8.938;2024-03-17T13:38:09;12.20;99.90
26691;DHT22;14307;51.718;8.938;2024-03-17T13:40:38;12.40;99.90
26691;DHT22;14307;51.718;8.938;2024-03-17T13:43:04;12.40;99.90
26691;DHT22;14307;51.718;8.938;2024-03-17T13:45:41;12.30;99.90
26691;DHT22;14307;51.718;8.938;2024-03-17T13:48:09;12.20;99.90
26691;DHT22;14307;51.718;8.938;2024-03-17T13:50:39;12.10;99.90
26691;DHT22;14307;51.718;8.938;2024-03-17T13:53:06;12.20;99.90
26691;DHT22;14307;51.718;8.938;2024-03-17T13:55:33;12.30;99.90
26691;DHT22;14307;51.718;8.938;2024-03-17T13:57:59;12.30;99.90
26691;DHT22;14307;51.718;8.938;2024-03-17T14:00:28;12.40;99.90
26691;DHT22;14307;51.718;8.938;2024-03-17T14:02:55;12.30;99.90
26691;DHT22;14307;51.718;8.938;2024-03-17T14:05:25;12.30;99.90
26691;DHT22;14307;51.718;8.938;2024-03-17T14:07:52;12.40;99.90
26691;DHT22;14307;51.718;8.938;2024-03-17T14:10:21;12.20;99.90
26691;DHT22;14307;51.718;8.938;2024-03-17T14:12:48;12.20;99.90
26691;DHT22;14307;51.718;8.938;2024-03-17T14:15:14;12.40;99.90
26691;DHT22;14307;51.718;8.938;2024-03-17T14:17:45;12.40;99.90
26691;DHT22;14307;51.718;8.938;2024-03-17T14:20:13;12.50;99.90
26691;DHT22;14307;51.718;8.938;2024-03-17T14:22:41;12.40;99.90
26691;DHT22;14307;51.718;8.938;2024-03-17T14:25:09;12.30;99.90
26691;DHT22;14307;51.718;8.938;2024-03-17T14:27:37;12.20;99.90
26691;DHT22;14307;51.718;8.938;2024-03-17T14:30:03;12.20;99.90
26691;DHT22;14307;51.718;8.938;2024-03-17T14:32:30;11.90;99.90
26691;DHT22;14307;51.718;8.938;2024-03-17T14:34:56;11.90;99.90
26691;DHT22;14307;51.718;8.938;2024-03-17T14:37:22;12.00;99.90
26691;DHT22;14307;51.718;8.938;2024-03-17T14:39:51;12.10;99.90
26691;DHT22;14307;51.718;8.938;2024-03-17T14:42:17;12.10;99.90
26691;DHT22;14307;51.718;8.938;2024-03-17T14:44:43;12.00;99.90
26691;DHT22;14307;51.718;8.938;2024-03-17T14:47:09;11.90;99.90
26691;DHT22;14307;51.718;8.938;2024-03-17T14:49:36;11.90;99.90
26691;DHT22;14307;51.718;8.938;2024-03-17T14:52:03;11.90;99.90
26691;DHT22;14307;51.718;8.938;2024-03-17T14:54:32;11.70;99.90
26691;DHT22;14307;51.718;8.938;2024-03-17T14:56:58;11.70;99.90
26691;DHT22;14307;51.718;8.938;2024-03-17T14:59:24;11.70;99.90
26691;DHT22;14307;51.718;8.938;2024-03-17T15:01:50;11.60;99.90
26691;DHT22;14307;51.718;8.938;2024-03-17T15:04:16;11.60;99.90
26691;DHT22;14307;51.718;8.938;2024-03-17T15:06:45;11.60;99.90
26691;DHT22;14307;51.718;8.938;2024-03-17T15:09:11;11.50;99.90
26691;DHT22;14307;51.718;8.938;2024-03-17T15:11:45;11.50;99.90
26691;DHT22;14307;51.718;8.938;2024-03-17T15:14:12;11.60;99.90
26691;DHT22;14307;51.718;8.938;2024-03-17T15:16:38;11.70;99.90
26691;DHT22;14307;51.718;8.938;2024-03-17T15:19:07;11.60;99.90
26691;DHT22;14307;51.718;8.938;2024-03-17T15:21:34;11.60;99.90
26691;DHT22;14307;51.718;8.938;2024-03-17T15:24:01;11.60;99.90
26691;DHT22;14307;51.718;8.938;2024-03-17T15:26:29;11.70;99.90
26691;DHT22;14307;51.718;8.938;2024-03-17T15:28:55;11.60;99.90
26691;DHT22;14307;51.718;8.938;2024-03-17T15:31:22;11.50;99.90
26691;DHT22;14307;51.718;8.938;2024-03-17T15:33:50;11.60;99.90
26691;DHT22;14307;51.718;8.938;2024-03-17T15:36:17;11.50;99.90
26691;DHT22;14307;51.718;8.938;2024-03-17T15:38:43;11.50;99.90
26691;DHT22;14307;51.718;8.938;2024-03-17T15:41:10;11.50;99.90
26691;DHT22;14307;51.718;8.938;2024-03-17T15:43:37;11.50;99.90
26691;DHT22;14307;51.718;8.938;2024-03-17T15:46:15;11.40;99.90
26691;DHT22;14307;51.718;8.938;2024-03-17T15:48:42;11.40;99.90
26691;DHT22;14307;51.718;8.938;2024-03-17T15:51:08;11.30;99.90
26691;DHT22;14307;51.718;8.938;2024-03-17T15:53:35;11.20;99.90
26691;DHT22;14307;51.718;8.938;2024-03-17T15:56:02;11.10;99.90
26691;DHT22;14307;51.718;8.938;2024-03-17T15:58:30;11.10;99.90
26691;DHT22;14307;51.718;8.938;2024-03-17T16:00:57;11.00;99.90
26691;DHT22;14307;51.718;8.938;2024-03-17T16:03:31;11.00;99.90
26691;DHT22;14307;51.718;8.938;2024-03-17T16:06:17;10.90;99.90
26691;DHT22;14307;51.718;8.938;2024-03-17T16:08:48;11.00;99.90
26691;DHT22;14307;51.718;8.938;2024-03-17T16:11:17;10.90;99.90
26691;DHT22;14307;51.718;8.938;2024-03-17T16:13:48;10.90;99.90